Terminal Aerodrome Forecast
Issued by NWS

Home | Current Version | Previous Version | Text Only | Print | Product List | Glossary On
Versions: 1 2 3 4 5 6 7 8 9 10 11 12 13 14 15 16
819
FTUS44 KCRP 291740
TAFALI
TAF
KALI 291740Z 2918/3018 15020G28KT P6SM BKN035
     FM292000 17015G20KT P6SM SCT050
     FM300300 14012G18KT P6SM VCSH BKN020 PROB30 3005/3007
      VRB20G35KT 3SM TSRA OVC015CB
     FM300700 34015G20KT P6SM OVC040
     FM301500 35012G18KT P6SM SCT100=

USA.gov is the U.S. government's official web portal to all federal, state and local government web resources and services.